sensor_id;sensor_type;location;lat;lon;timestamp;P1;durP1;ratioP1;P2;durP2;ratioP2
59607;SDS011;45426;44.726;10.390;2023-05-23T00:01:40;17.65;;;10.77;;
59607;SDS011;45426;44.726;10.390;2023-05-23T00:04:07;19.23;;;10.73;;
59607;SDS011;45426;44.726;10.390;2023-05-23T00:06:33;16.48;;;10.40;;
59607;SDS011;45426;44.726;10.390;2023-05-23T00:09:00;17.17;;;11.30;;
59607;SDS011;45426;44.726;10.390;2023-05-23T00:11:25;17.88;;;11.00;;
59607;SDS011;45426;44.726;10.390;2023-05-23T00:13:53;20.88;;;10.88;;
59607;SDS011;45426;44.726;10.390;2023-05-23T00:16:19;17.77;;;10.68;;
59607;SDS011;45426;44.726;10.390;2023-05-23T00:18:45;20.02;;;11.68;;
59607;SDS011;45426;44.726;10.390;2023-05-23T00:21:13;18.65;;;12.32;;
59607;SDS011;45426;44.726;10.390;2023-05-23T00:23:39;20.73;;;11.60;;
59607;SDS011;45426;44.726;10.390;2023-05-23T00:26:06;20.15;;;11.23;;
59607;SDS011;45426;44.726;10.390;2023-05-23T00:28:35;17.40;;;11.00;;
59607;SDS011;45426;44.726;10.390;2023-05-23T00:31:01;19.85;;;11.23;;
59607;SDS011;45426;44.726;10.390;2023-05-23T00:33:27;17.63;;;11.05;;
59607;SDS011;45426;44.726;10.390;2023-05-23T00:35:53;20.48;;;11.52;;
59607;SDS011;45426;44.726;10.390;2023-05-23T00:38:19;17.20;;;11.15;;
59607;SDS011;45426;44.726;10.390;2023-05-23T00:40:45;21.83;;;11.30;;
59607;SDS011;45426;44.726;10.390;2023-05-23T00:43:10;17.40;;;10.85;;
59607;SDS011;45426;44.726;10.390;2023-05-23T00:45:36;18.83;;;11.18;;
59607;SDS011;45426;44.726;10.390;2023-05-23T00:48:02;22.58;;;11.68;;
59607;SDS011;45426;44.726;10.390;2023-05-23T00:50:28;18.25;;;11.30;;
59607;SDS011;45426;44.726;10.390;2023-05-23T00:52:54;19.05;;;11.07;;
59607;SDS011;45426;44.726;10.390;2023-05-23T00:55:22;18.63;;;11.50;;
59607;SDS011;45426;44.726;10.390;2023-05-23T00:57:48;21.50;;;11.82;;
59607;SDS011;45426;44.726;10.390;2023-05-23T01:00:15;18.30;;;11.60;;
59607;SDS011;45426;44.726;10.390;2023-05-23T01:02:45;22.48;;;11.82;;
59607;SDS011;45426;44.726;10.390;2023-05-23T01:05:13;19.38;;;10.70;;
59607;SDS011;45426;44.726;10.390;2023-05-23T01:07:41;18.55;;;11.40;;
59607;SDS011;45426;44.726;10.390;2023-05-23T01:10:08;16.77;;;10.80;;
59607;SDS011;45426;44.726;10.390;2023-05-23T01:15:14;17.20;;;10.80;;
59607;SDS011;45426;44.726;10.390;2023-05-23T01:20:33;21.08;;;11.23;;
59607;SDS011;45426;44.726;10.390;2023-05-23T01:28:06;16.88;;;10.43;;
59607;SDS011;45426;44.726;10.390;2023-05-23T01:30:37;18.60;;;11.00;;
59607;SDS011;45426;44.726;10.390;2023-05-23T01:33:04;16.83;;;10.48;;
59607;SDS011;45426;44.726;10.390;2023-05-23T01:35:35;16.60;;;10.32;;
59607;SDS011;45426;44.726;10.390;2023-05-23T01:38:02;20.08;;;11.10;;
59607;SDS011;45426;44.726;10.390;2023-05-23T01:40:28;16.15;;;10.43;;
59607;SDS011;45426;44.726;10.390;2023-05-23T01:42:53;16.95;;;10.77;;
59607;SDS011;45426;44.726;10.390;2023-05-23T01:45:21;20.30;;;10.57;;
59607;SDS011;45426;44.726;10.390;2023-05-23T01:47:50;16.58;;;10.63;;
59607;SDS011;45426;44.726;10.390;2023-05-23T01:50:17;18.15;;;9.82;;
59607;SDS011;45426;44.726;10.390;2023-05-23T01:52:43;18.33;;;10.20;;
59607;SDS011;45426;44.726;10.390;2023-05-23T01:55:11;16.80;;;10.27;;
59607;SDS011;45426;44.726;10.390;2023-05-23T01:57:42;21.60;;;10.18;;
59607;SDS011;45426;44.726;10.390;2023-05-23T02:00:12;15.73;;;10.25;;
59607;SDS011;45426;44.726;10.390;2023-05-23T02:02:39;17.23;;;10.00;;
59607;SDS011;45426;44.726;10.390;2023-05-23T02:05:05;15.27;;;9.95;;
59607;SDS011;45426;44.726;10.390;2023-05-23T02:07:31;16.05;;;9.93;;
59607;SDS011;45426;44.726;10.390;2023-05-23T02:09:56;16.45;;;10.07;;
59607;SDS011;45426;44.726;10.390;2023-05-23T02:12:22;17.00;;;9.80;;
59607;SDS011;45426;44.726;10.390;2023-05-23T02:14:48;16.63;;;10.60;;
59607;SDS011;45426;44.726;10.390;2023-05-23T02:17:16;18.25;;;10.77;;
59607;SDS011;45426;44.726;10.390;2023-05-23T02:19:44;17.92;;;9.95;;
59607;SDS011;45426;44.726;10.390;2023-05-23T02:22:10;17.13;;;10.23;;
59607;SDS011;45426;44.726;10.390;2023-05-23T02:24:35;18.42;;;10.18;;
59607;SDS011;45426;44.726;10.390;2023-05-23T02:27:01;17.33;;;10.57;;
59607;SDS011;45426;44.726;10.390;2023-05-23T02:29:26;17.48;;;10.38;;
59607;SDS011;45426;44.726;10.390;2023-05-23T02:31:52;18.38;;;10.57;;
59607;SDS011;45426;44.726;10.390;2023-05-23T02:34:17;19.10;;;10.60;;
59607;SDS011;45426;44.726;10.390;2023-05-23T02:36:42;15.15;;;10.18;;
59607;SDS011;45426;44.726;10.390;2023-05-23T02:39:08;18.55;;;10.65;;
59607;SDS011;45426;44.726;10.390;2023-05-23T02:41:33;18.42;;;10.02;;
59607;SDS011;45426;44.726;10.390;2023-05-23T02:44:03;19.35;;;10.88;;
59607;SDS011;45426;44.726;10.390;2023-05-23T02:46:28;20.35;;;10.43;;
59607;SDS011;45426;44.726;10.390;2023-05-23T02:48:54;18.75;;;10.90;;
59607;SDS011;45426;44.726;10.390;2023-05-23T02:51:20;18.67;;;11.02;;
59607;SDS011;45426;44.726;10.390;2023-05-23T02:53:45;19.23;;;10.73;;
59607;SDS011;45426;44.726;10.390;2023-05-23T02:56:11;18.67;;;10.68;;
59607;SDS011;45426;44.726;10.390;2023-05-23T02:58:37;18.83;;;10.98;;
59607;SDS011;45426;44.726;10.390;2023-05-23T03:01:04;18.65;;;11.25;;
59607;SDS011;45426;44.726;10.390;2023-05-23T03:03:30;18.92;;;11.02;;
59607;SDS011;45426;44.726;10.390;2023-05-23T03:05:56;17.85;;;11.00;;
59607;SDS011;45426;44.726;10.390;2023-05-23T03:08:22;17.98;;;10.85;;
59607;SDS011;45426;44.726;10.390;2023-05-23T03:10:48;18.85;;;10.68;;
59607;SDS011;45426;44.726;10.390;2023-05-23T03:13:13;15.95;;;10.75;;
59607;SDS011;45426;44.726;10.390;2023-05-23T03:15:39;17.52;;;11.27;;
59607;SDS011;45426;44.726;10.390;2023-05-23T03:18:04;18.38;;;10.52;;
59607;SDS011;45426;44.726;10.390;2023-05-23T03:20:30;19.90;;;10.98;;
59607;SDS011;45426;44.726;10.390;2023-05-23T03:22:55;18.30;;;11.07;;
59607;SDS011;45426;44.726;10.390;2023-05-23T03:25:21;19.73;;;11.07;;
59607;SDS011;45426;44.726;10.390;2023-05-23T03:27:46;17.02;;;10.73;;
59607;SDS011;45426;44.726;10.390;2023-05-23T03:30:12;18.65;;;10.75;;
59607;SDS011;45426;44.726;10.390;2023-05-23T03:32:40;18.42;;;11.00;;
59607;SDS011;45426;44.726;10.390;2023-05-23T03:35:06;15.55;;;10.57;;
59607;SDS011;45426;44.726;10.390;2023-05-23T03:37:32;16.13;;;10.40;;
59607;SDS011;45426;44.726;10.390;2023-05-23T03:39:58;17.92;;;10.95;;
59607;SDS011;45426;44.726;10.390;2023-05-23T03:42:23;20.08;;;11.00;;
59607;SDS011;45426;44.726;10.390;2023-05-23T03:44:51;17.30;;;10.88;;
59607;SDS011;45426;44.726;10.390;2023-05-23T03:47:16;18.67;;;10.88;;
59607;SDS011;45426;44.726;10.390;2023-05-23T03:49:42;20.70;;;11.07;;
59607;SDS011;45426;44.726;10.390;2023-05-23T03:52:09;17.35;;;11.50;;
59607;SDS011;45426;44.726;10.390;2023-05-23T03:54:35;19.83;;;11.52;;
59607;SDS011;45426;44.726;10.390;2023-05-23T03:57:00;17.23;;;10.65;;
59607;SDS011;45426;44.726;10.390;2023-05-23T03:59:26;19.63;;;11.35;;
59607;SDS011;45426;44.726;10.390;2023-05-23T04:01:52;17.63;;;11.77;;
59607;SDS011;45426;44.726;10.390;2023-05-23T04:04:18;22.35;;;11.27;;
59607;SDS011;45426;44.726;10.390;2023-05-23T04:06:45;19.73;;;11.45;;
59607;SDS011;45426;44.726;10.390;2023-05-23T04:09:11;20.40;;;11.30;;
59607;SDS011;45426;44.726;10.390;2023-05-23T04:11:38;19.23;;;10.95;;
59607;SDS011;45426;44.726;10.390;2023-05-23T04:14:03;17.98;;;11.57;;
59607;SDS011;45426;44.726;10.390;2023-05-23T04:16:29;18.17;;;11.20;;
59607;SDS011;45426;44.726;10.390;2023-05-23T04:18:57;21.15;;;11.15;;
59607;SDS011;45426;44.726;10.390;2023-05-23T04:21:23;18.73;;;11.27;;
59607;SDS011;45426;44.726;10.390;2023-05-23T04:23:48;20.92;;;10.95;;
59607;SDS011;45426;44.726;10.390;2023-05-23T04:26:14;18.75;;;11.95;;
59607;SDS011;45426;44.726;10.390;2023-05-23T04:28:39;20.13;;;11.63;;
59607;SDS011;45426;44.726;10.390;2023-05-23T04:31:07;21.08;;;10.90;;
59607;SDS011;45426;44.726;10.390;2023-05-23T04:33:33;18.98;;;12.00;;
59607;SDS011;45426;44.726;10.390;2023-05-23T04:35:58;18.25;;;11.65;;
59607;SDS011;45426;44.726;10.390;2023-05-23T04:38:24;22.33;;;11.40;;
59607;SDS011;45426;44.726;10.390;2023-05-23T04:40:52;19.70;;;11.38;;
59607;SDS011;45426;44.726;10.390;2023-05-23T04:43:18;17.45;;;10.95;;
59607;SDS011;45426;44.726;10.390;2023-05-23T04:45:47;18.05;;;11.77;;
59607;SDS011;45426;44.726;10.390;2023-05-23T04:48:18;18.48;;;11.50;;
59607;SDS011;45426;44.726;10.390;2023-05-23T04:50:46;17.50;;;11.18;;
59607;SDS011;45426;44.726;10.390;2023-05-23T04:53:12;21.17;;;11.18;;
59607;SDS011;45426;44.726;10.390;2023-05-23T04:55:38;21.45;;;12.10;;
59607;SDS011;45426;44.726;10.390;2023-05-23T04:58:04;20.70;;;11.27;;
59607;SDS011;45426;44.726;10.390;2023-05-23T05:00:29;21.20;;;11.65;;
59607;SDS011;45426;44.726;10.390;2023-05-23T05:02:54;18.73;;;11.73;;
59607;SDS011;45426;44.726;10.390;2023-05-23T05:05:20;18.67;;;11.27;;
59607;SDS011;45426;44.726;10.390;2023-05-23T05:07:45;18.25;;;12.35;;
59607;SDS011;45426;44.726;10.390;2023-05-23T05:10:11;19.13;;;11.90;;
59607;SDS011;45426;44.726;10.390;2023-05-23T05:12:45;22.55;;;11.73;;
59607;SDS011;45426;44.726;10.390;2023-05-23T05:15:13;18.13;;;11.65;;
59607;SDS011;45426;44.726;10.390;2023-05-23T05:17:41;18.10;;;11.73;;
59607;SDS011;45426;44.726;10.390;2023-05-23T05:20:07;20.13;;;12.07;;
59607;SDS011;45426;44.726;10.390;2023-05-23T05:22:36;22.98;;;11.43;;
59607;SDS011;45426;44.726;10.390;2023-05-23T05:25:05;19.30;;;12.23;;
59607;SDS011;45426;44.726;10.390;2023-05-23T05:27:31;20.85;;;12.60;;
59607;SDS011;45426;44.726;10.390;2023-05-23T05:29:57;20.05;;;12.05;;
59607;SDS011;45426;44.726;10.390;2023-05-23T05:32:28;17.80;;;11.52;;
59607;SDS011;45426;44.726;10.390;2023-05-23T05:34:55;18.65;;;12.55;;
59607;SDS011;45426;44.726;10.390;2023-05-23T05:37:24;18.35;;;11.82;;
59607;SDS011;45426;44.726;10.390;2023-05-23T05:39:49;20.33;;;12.00;;
59607;SDS011;45426;44.726;10.390;2023-05-23T05:42:15;17.23;;;12.02;;
59607;SDS011;45426;44.726;10.390;2023-05-23T05:44:40;17.63;;;11.30;;
59607;SDS011;45426;44.726;10.390;2023-05-23T05:47:06;18.83;;;11.77;;
59607;SDS011;45426;44.726;10.390;2023-05-23T05:49:31;17.50;;;11.25;;
59607;SDS011;45426;44.726;10.390;2023-05-23T05:51:57;19.05;;;11.98;;
59607;SDS011;45426;44.726;10.390;2023-05-23T05:54:22;17.35;;;11.50;;
59607;SDS011;45426;44.726;10.390;2023-05-23T05:56:48;19.80;;;12.13;;
59607;SDS011;45426;44.726;10.390;2023-05-23T05:59:13;19.63;;;12.43;;
59607;SDS011;45426;44.726;10.390;2023-05-23T06:01:39;23.42;;;12.20;;
59607;SDS011;45426;44.726;10.390;2023-05-23T06:04:05;17.98;;;11.77;;
59607;SDS011;45426;44.726;10.390;2023-05-23T06:06:30;18.95;;;11.20;;
59607;SDS011;45426;44.726;10.390;2023-05-23T06:08:56;20.77;;;11.52;;
59607;SDS011;45426;44.726;10.390;2023-05-23T06:11:21;19.00;;;12.43;;
59607;SDS011;45426;44.726;10.390;2023-05-23T06:13:47;17.65;;;11.63;;
59607;SDS011;45426;44.726;10.390;2023-05-23T06:16:12;17.92;;;11.32;;
59607;SDS011;45426;44.726;10.390;2023-05-23T06:18:39;17.17;;;11.30;;
59607;SDS011;45426;44.726;10.390;2023-05-23T06:21:07;16.50;;;11.82;;
59607;SDS011;45426;44.726;10.390;2023-05-23T06:23:33;18.48;;;11.20;;
59607;SDS011;45426;44.726;10.390;2023-05-23T06:25:58;16.42;;;10.80;;
59607;SDS011;45426;44.726;10.390;2023-05-23T06:28:24;18.70;;;11.13;;
59607;SDS011;45426;44.726;10.390;2023-05-23T06:30:50;19.40;;;11.13;;
59607;SDS011;45426;44.726;10.390;2023-05-23T06:33:15;18.02;;;10.63;;
59607;SDS011;45426;44.726;10.390;2023-05-23T06:35:41;15.32;;;11.02;;
59607;SDS011;45426;44.726;10.390;2023-05-23T06:38:07;14.77;;;10.85;;
59607;SDS011;45426;44.726;10.390;2023-05-23T06:40:32;17.67;;;10.45;;
59607;SDS011;45426;44.726;10.390;2023-05-23T06:42:58;15.52;;;9.77;;
59607;SDS011;45426;44.726;10.390;2023-05-23T06:45:23;16.20;;;9.98;;
59607;SDS011;45426;44.726;10.390;2023-05-23T06:47:49;14.60;;;8.95;;
59607;SDS011;45426;44.726;10.390;2023-05-23T06:50:15;14.35;;;8.80;;
59607;SDS011;45426;44.726;10.390;2023-05-23T06:52:44;16.42;;;8.80;;
59607;SDS011;45426;44.726;10.390;2023-05-23T06:55:10;12.73;;;8.50;;
59607;SDS011;45426;44.726;10.390;2023-05-23T06:57:39;13.45;;;8.18;;
59607;SDS011;45426;44.726;10.390;2023-05-23T07:00:05;13.10;;;8.70;;
59607;SDS011;45426;44.726;10.390;2023-05-23T07:02:31;13.45;;;8.70;;
59607;SDS011;45426;44.726;10.390;2023-05-23T07:04:56;14.07;;;7.70;;
59607;SDS011;45426;44.726;10.390;2023-05-23T07:07:22;14.70;;;7.88;;
59607;SDS011;45426;44.726;10.390;2023-05-23T07:09:47;12.35;;;7.53;;
59607;SDS011;45426;44.726;10.390;2023-05-23T07:12:12;14.43;;;8.07;;
59607;SDS011;45426;44.726;10.390;2023-05-23T07:14:38;13.45;;;7.50;;
59607;SDS011;45426;44.726;10.390;2023-05-23T07:17:07;12.75;;;7.40;;
59607;SDS011;45426;44.726;10.390;2023-05-23T07:19:32;10.45;;;7.10;;
59607;SDS011;45426;44.726;10.390;2023-05-23T07:21:57;9.48;;;6.30;;
59607;SDS011;45426;44.726;10.390;2023-05-23T07:24:23;11.98;;;6.55;;
59607;SDS011;45426;44.726;10.390;2023-05-23T07:26:48;8.38;;;6.00;;
59607;SDS011;45426;44.726;10.390;2023-05-23T07:29:14;9.45;;;6.13;;
59607;SDS011;45426;44.726;10.390;2023-05-23T07:31:39;9.63;;;6.38;;
59607;SDS011;45426;44.726;10.390;2023-05-23T07:34:05;11.07;;;6.32;;
59607;SDS011;45426;44.726;10.390;2023-05-23T07:36:30;10.73;;;6.45;;
59607;SDS011;45426;44.726;10.390;2023-05-23T07:38:58;11.13;;;6.18;;
59607;SDS011;45426;44.726;10.390;2023-05-23T07:41:23;12.80;;;6.45;;
59607;SDS011;45426;44.726;10.390;2023-05-23T07:43:49;9.98;;;5.70;;
59607;SDS011;45426;44.726;10.390;2023-05-23T07:46:15;10.68;;;6.07;;
59607;SDS011;45426;44.726;10.390;2023-05-23T07:48:40;12.10;;;6.10;;
59607;SDS011;45426;44.726;10.390;2023-05-23T07:51:06;10.82;;;6.30;;
59607;SDS011;45426;44.726;10.390;2023-05-23T07:53:31;8.85;;;5.75;;
59607;SDS011;45426;44.726;10.390;2023-05-23T07:55:57;10.85;;;6.00;;
59607;SDS011;45426;44.726;10.390;2023-05-23T07:58:22;11.55;;;6.60;;
59607;SDS011;45426;44.726;10.390;2023-05-23T08:00:48;11.10;;;6.53;;
59607;SDS011;45426;44.726;10.390;2023-05-23T08:03:16;9.07;;;5.75;;
59607;SDS011;45426;44.726;10.390;2023-05-23T08:05:44;12.13;;;6.20;;
59607;SDS011;45426;44.726;10.390;2023-05-23T08:08:11;11.55;;;6.80;;
59607;SDS011;45426;44.726;10.390;2023-05-23T08:10:36;11.15;;;6.80;;
59607;SDS011;45426;44.726;10.390;2023-05-23T08:13:04;12.90;;;6.60;;
59607;SDS011;45426;44.726;10.390;2023-05-23T08:15:31;13.18;;;6.45;;
59607;SDS011;45426;44.726;10.390;2023-05-23T08:17:57;11.43;;;6.35;;
59607;SDS011;45426;44.726;10.390;2023-05-23T08:20:24;11.25;;;6.30;;
59607;SDS011;45426;44.726;10.390;2023-05-23T08:22:56;11.48;;;6.07;;
59607;SDS011;45426;44.726;10.390;2023-05-23T08:25:22;12.30;;;5.90;;
59607;SDS011;45426;44.726;10.390;2023-05-23T08:27:49;12.98;;;6.68;;
59607;SDS011;45426;44.726;10.390;2023-05-23T08:30:19;10.50;;;6.63;;
59607;SDS011;45426;44.726;10.390;2023-05-23T08:32:47;11.98;;;6.30;;
59607;SDS011;45426;44.726;10.390;2023-05-23T08:35:12;12.00;;;7.20;;
59607;SDS011;45426;44.726;10.390;2023-05-23T08:37:38;12.27;;;6.57;;
59607;SDS011;45426;44.726;10.390;2023-05-23T08:40:05;10.05;;;6.25;;
59607;SDS011;45426;44.726;10.390;2023-05-23T08:42:32;11.02;;;6.28;;
59607;SDS011;45426;44.726;10.390;2023-05-23T08:44:58;13.90;;;6.72;;
59607;SDS011;45426;44.726;10.390;2023-05-23T08:47:24;10.52;;;6.40;;
59607;SDS011;45426;44.726;10.390;2023-05-23T08:49:50;15.63;;;6.50;;
59607;SDS011;45426;44.726;10.390;2023-05-23T08:52:19;9.63;;;6.13;;
59607;SDS011;45426;44.726;10.390;2023-05-23T08:54:49;11.82;;;6.57;;
59607;SDS011;45426;44.726;10.390;2023-05-23T08:57:15;14.25;;;6.63;;
59607;SDS011;45426;44.726;10.390;2023-05-23T08:59:41;13.10;;;6.93;;
59607;SDS011;45426;44.726;10.390;2023-05-23T09:02:07;11.98;;;6.55;;
59607;SDS011;45426;44.726;10.390;2023-05-23T09:04:36;12.10;;;7.10;;
59607;SDS011;45426;44.726;10.390;2023-05-23T09:07:01;14.98;;;7.10;;
59607;SDS011;45426;44.726;10.390;2023-05-23T09:09:28;15.30;;;7.47;;
59607;SDS011;45426;44.726;10.390;2023-05-23T09:11:55;11.25;;;6.88;;
59607;SDS011;45426;44.726;10.390;2023-05-23T09:14:25;12.80;;;7.47;;
59607;SDS011;45426;44.726;10.390;2023-05-23T09:16:58;11.27;;;6.80;;
59607;SDS011;45426;44.726;10.390;2023-05-23T09:19:25;13.60;;;7.90;;
59607;SDS011;45426;44.726;10.390;2023-05-23T09:21:52;15.48;;;7.47;;
59607;SDS011;45426;44.726;10.390;2023-05-23T09:24:18;14.15;;;7.50;;
59607;SDS011;45426;44.726;10.390;2023-05-23T09:26:47;12.40;;;7.70;;
59607;SDS011;45426;44.726;10.390;2023-05-23T09:29:18;13.40;;;7.15;;
59607;SDS011;45426;44.726;10.390;2023-05-23T09:31:44;12.73;;;7.60;;
59607;SDS011;45426;44.726;10.390;2023-05-23T09:34:09;12.02;;;7.03;;
59607;SDS011;45426;44.726;10.390;2023-05-23T09:36:35;14.38;;;7.93;;
59607;SDS011;45426;44.726;10.390;2023-05-23T09:39:05;14.00;;;8.32;;
59607;SDS011;45426;44.726;10.390;2023-05-23T09:41:32;13.40;;;7.82;;
59607;SDS011;45426;44.726;10.390;2023-05-23T09:43:59;16.40;;;8.25;;
59607;SDS011;45426;44.726;10.390;2023-05-23T09:46:29;11.05;;;7.40;;
59607;SDS011;45426;44.726;10.390;2023-05-23T09:48:55;11.50;;;7.53;;
59607;SDS011;45426;44.726;10.390;2023-05-23T09:51:21;11.50;;;7.32;;
59607;SDS011;45426;44.726;10.390;2023-05-23T09:53:50;12.07;;;7.55;;
59607;SDS011;45426;44.726;10.390;2023-05-23T09:56:17;15.00;;;7.80;;
59607;SDS011;45426;44.726;10.390;2023-05-23T09:58:47;11.77;;;7.65;;
59607;SDS011;45426;44.726;10.390;2023-05-23T10:01:14;12.57;;;7.20;;
59607;SDS011;45426;44.726;10.390;2023-05-23T10:03:49;12.63;;;7.30;;
59607;SDS011;45426;44.726;10.390;2023-05-23T10:08:57;12.43;;;6.75;;
59607;SDS011;45426;44.726;10.390;2023-05-23T10:13:59;14.27;;;8.30;;
59607;SDS011;45426;44.726;10.390;2023-05-23T10:18:58;13.75;;;7.28;;
59607;SDS011;45426;44.726;10.390;2023-05-23T10:21:37;12.43;;;7.50;;
59607;SDS011;45426;44.726;10.390;2023-05-23T10:24:08;11.90;;;7.35;;
59607;SDS011;45426;44.726;10.390;2023-05-23T10:26:38;14.10;;;8.35;;
59607;SDS011;45426;44.726;10.390;2023-05-23T10:29:05;13.48;;;7.88;;
59607;SDS011;45426;44.726;10.390;2023-05-23T10:31:31;11.40;;;7.18;;
59607;SDS011;45426;44.726;10.390;2023-05-23T10:37:06;15.68;;;8.15;;
59607;SDS011;45426;44.726;10.390;2023-05-23T10:42:41;14.05;;;7.60;;
59607;SDS011;45426;44.726;10.390;2023-05-23T10:45:20;12.57;;;7.80;;
59607;SDS011;45426;44.726;10.390;2023-05-23T10:47:47;15.18;;;7.95;;
59607;SDS011;45426;44.726;10.390;2023-05-23T10:50:37;16.65;;;9.40;;
59607;SDS011;45426;44.726;10.390;2023-05-23T10:53:04;17.48;;;8.35;;
59607;SDS011;45426;44.726;10.390;2023-05-23T10:55:30;15.20;;;8.35;;
59607;SDS011;45426;44.726;10.390;2023-05-23T10:58:18;12.00;;;7.35;;
59607;SDS011;45426;44.726;10.390;2023-05-23T11:00:52;15.18;;;8.23;;
59607;SDS011;45426;44.726;10.390;2023-05-23T11:03:29;12.43;;;7.20;;
59607;SDS011;45426;44.726;10.390;2023-05-23T11:06:04;12.45;;;7.40;;
59607;SDS011;45426;44.726;10.390;2023-05-23T11:08:36;10.52;;;7.20;;
59607;SDS011;45426;44.726;10.390;2023-05-23T11:11:04;11.40;;;5.38;;
59607;SDS011;45426;44.726;10.390;2023-05-23T11:16:24;12.75;;;7.10;;
59607;SDS011;45426;44.726;10.390;2023-05-23T11:22:02;11.82;;;5.82;;
59607;SDS011;45426;44.726;10.390;2023-05-23T11:25:12;11.48;;;5.43;;
59607;SDS011;45426;44.726;10.390;2023-05-23T11:32:34;13.95;;;6.57;;
59607;SDS011;45426;44.726;10.390;2023-05-23T11:35:01;10.98;;;5.90;;
59607;SDS011;45426;44.726;10.390;2023-05-23T11:37:28;9.70;;;5.78;;
59607;SDS011;45426;44.726;10.390;2023-05-23T11:39:55;10.43;;;6.00;;
59607;SDS011;45426;44.726;10.390;2023-05-23T11:42:21;10.68;;;5.70;;
59607;SDS011;45426;44.726;10.390;2023-05-23T11:44:48;10.38;;;5.70;;
59607;SDS011;45426;44.726;10.390;2023-05-23T11:47:17;9.80;;;5.47;;
59607;SDS011;45426;44.726;10.390;2023-05-23T11:49:43;10.00;;;5.60;;
59607;SDS011;45426;44.726;10.390;2023-05-23T11:52:13;12.00;;;6.55;;
59607;SDS011;45426;44.726;10.390;2023-05-23T11:54:39;9.90;;;5.72;;
59607;SDS011;45426;44.726;10.390;2023-05-23T11:57:08;10.23;;;5.50;;
59607;SDS011;45426;44.726;10.390;2023-05-23T11:59:34;10.05;;;5.45;;
59607;SDS011;45426;44.726;10.390;2023-05-23T12:02:01;9.77;;;5.72;;
59607;SDS011;45426;44.726;10.390;2023-05-23T12:04:27;8.52;;;5.03;;
59607;SDS011;45426;44.726;10.390;2023-05-23T12:06:52;11.43;;;5.40;;
59607;SDS011;45426;44.726;10.390;2023-05-23T12:09:18;11.35;;;5.28;;
59607;SDS011;45426;44.726;10.390;2023-05-23T12:11:44;7.88;;;5.00;;
59607;SDS011;45426;44.726;10.390;2023-05-23T12:14:13;12.13;;;4.90;;
59607;SDS011;45426;44.726;10.390;2023-05-23T12:16:44;9.07;;;4.90;;
59607;SDS011;45426;44.726;10.390;2023-05-23T12:19:11;9.77;;;4.63;;
59607;SDS011;45426;44.726;10.390;2023-05-23T12:21:41;7.57;;;5.07;;
59607;SDS011;45426;44.726;10.390;2023-05-23T12:24:21;10.43;;;4.80;;
59607;SDS011;45426;44.726;10.390;2023-05-23T12:26:54;10.73;;;5.03;;
59607;SDS011;45426;44.726;10.390;2023-05-23T12:29:28;8.57;;;5.00;;
59607;SDS011;45426;44.726;10.390;2023-05-23T12:31:58;8.15;;;4.47;;
59607;SDS011;45426;44.726;10.390;2023-05-23T12:34:25;7.93;;;4.85;;
59607;SDS011;45426;44.726;10.390;2023-05-23T12:36:57;9.75;;;5.05;;
59607;SDS011;45426;44.726;10.390;2023-05-23T12:39:24;10.90;;;5.10;;
59607;SDS011;45426;44.726;10.390;2023-05-23T12:41:51;9.70;;;4.97;;
59607;SDS011;45426;44.726;10.390;2023-05-23T12:44:16;7.47;;;4.60;;
59607;SDS011;45426;44.726;10.390;2023-05-23T12:46:42;9.68;;;5.00;;
59607;SDS011;45426;44.726;10.390;2023-05-23T12:49:08;8.60;;;4.70;;
59607;SDS011;45426;44.726;10.390;2023-05-23T12:51:34;8.80;;;4.65;;
59607;SDS011;45426;44.726;10.390;2023-05-23T12:54:00;8.25;;;4.60;;
59607;SDS011;45426;44.726;10.390;2023-05-23T12:56:26;7.57;;;4.97;;
59607;SDS011;45426;44.726;10.390;2023-05-23T12:58:51;8.18;;;4.97;;
59607;SDS011;45426;44.726;10.390;2023-05-23T13:01:18;10.40;;;5.03;;
59607;SDS011;45426;44.726;10.390;2023-05-23T13:03:44;8.02;;;5.10;;
59607;SDS011;45426;44.726;10.390;2023-05-23T13:06:10;7.15;;;4.60;;
59607;SDS011;45426;44.726;10.390;2023-05-23T13:08:36;10.00;;;5.57;;
59607;SDS011;45426;44.726;10.390;2023-05-23T13:11:01;9.57;;;4.97;;
59607;SDS011;45426;44.726;10.390;2023-05-23T13:13:27;8.95;;;5.15;;
59607;SDS011;45426;44.726;10.390;2023-05-23T13:15:53;9.18;;;4.93;;
59607;SDS011;45426;44.726;10.390;2023-05-23T13:18:18;8.60;;;4.93;;
59607;SDS011;45426;44.726;10.390;2023-05-23T13:20:44;10.05;;;5.00;;
59607;SDS011;45426;44.726;10.390;2023-05-23T13:23:10;8.82;;;5.20;;
59607;SDS011;45426;44.726;10.390;2023-05-23T13:25:35;10.23;;;5.70;;
59607;SDS011;45426;44.726;10.390;2023-05-23T13:28:01;8.68;;;5.18;;
59607;SDS011;45426;44.726;10.390;2023-05-23T13:30:27;7.90;;;4.75;;
59607;SDS011;45426;44.726;10.390;2023-05-23T13:32:53;9.45;;;5.15;;
59607;SDS011;45426;44.726;10.390;2023-05-23T13:35:19;10.38;;;5.40;;
59607;SDS011;45426;44.726;10.390;2023-05-23T13:37:45;9.27;;;5.13;;
59607;SDS011;45426;44.726;10.390;2023-05-23T13:40:11;7.75;;;4.88;;
59607;SDS011;45426;44.726;10.390;2023-05-23T13:42:42;9.07;;;4.80;;
59607;SDS011;45426;44.726;10.390;2023-05-23T13:45:07;8.65;;;5.10;;
59607;SDS011;45426;44.726;10.390;2023-05-23T13:47:33;9.52;;;4.68;;
59607;SDS011;45426;44.726;10.390;2023-05-23T13:50:00;10.40;;;5.18;;
59607;SDS011;45426;44.726;10.390;2023-05-23T13:52:26;12.85;;;5.15;;
59607;SDS011;45426;44.726;10.390;2023-05-23T13:54:51;9.18;;;5.10;;
59607;SDS011;45426;44.726;10.390;2023-05-23T13:57:17;11.00;;;4.90;;
59607;SDS011;45426;44.726;10.390;2023-05-23T13:59:43;9.45;;;5.15;;
59607;SDS011;45426;44.726;10.390;2023-05-23T14:02:08;9.82;;;5.45;;
59607;SDS011;45426;44.726;10.390;2023-05-23T14:04:34;9.05;;;4.93;;
59607;SDS011;45426;44.726;10.390;2023-05-23T14:06:59;12.52;;;5.38;;
59607;SDS011;45426;44.726;10.390;2023-05-23T14:09:24;10.43;;;5.20;;
59607;SDS011;45426;44.726;10.390;2023-05-23T14:11:50;7.60;;;4.72;;
59607;SDS011;45426;44.726;10.390;2023-05-23T14:14:16;11.35;;;4.65;;
59607;SDS011;45426;44.726;10.390;2023-05-23T14:16:42;9.55;;;4.50;;
59607;SDS011;45426;44.726;10.390;2023-05-23T14:19:08;8.02;;;4.57;;
59607;SDS011;45426;44.726;10.390;2023-05-23T14:21:33;9.90;;;4.57;;
59607;SDS011;45426;44.726;10.390;2023-05-23T14:23:59;9.95;;;4.90;;
59607;SDS011;45426;44.726;10.390;2023-05-23T14:26:24;8.63;;;5.00;;
59607;SDS011;45426;44.726;10.390;2023-05-23T14:28:50;9.40;;;4.75;;
59607;SDS011;45426;44.726;10.390;2023-05-23T14:31:15;8.43;;;4.65;;
59607;SDS011;45426;44.726;10.390;2023-05-23T14:33:41;9.15;;;4.68;;
59607;SDS011;45426;44.726;10.390;2023-05-23T14:36:07;11.20;;;5.38;;
59607;SDS011;45426;44.726;10.390;2023-05-23T14:38:32;9.35;;;5.00;;
59607;SDS011;45426;44.726;10.390;2023-05-23T14:40:58;9.75;;;4.70;;
59607;SDS011;45426;44.726;10.390;2023-05-23T14:43:24;7.70;;;4.88;;
59607;SDS011;45426;44.726;10.390;2023-05-23T14:45:49;11.40;;;4.97;;
59607;SDS011;45426;44.726;10.390;2023-05-23T14:48:15;9.43;;;4.90;;
59607;SDS011;45426;44.726;10.390;2023-05-23T14:50:41;8.57;;;5.10;;
59607;SDS011;45426;44.726;10.390;2023-05-23T14:53:07;10.25;;;5.38;;